sensor_id;sensor_type;location;lat;lon;timestamp;P1;durP1;ratioP1;P2;durP2;ratioP2
34019;SDS011;20895;51.034;3.742;2023-03-02T00:01:20;10.52;;;6.97;;
34019;SDS011;20895;51.034;3.742;2023-03-02T00:03:46;12.02;;;7.65;;
34019;SDS011;20895;51.034;3.742;2023-03-02T00:06:11;12.88;;;7.55;;
34019;SDS011;20895;51.034;3.742;2023-03-02T00:08:37;11.57;;;8.77;;
34019;SDS011;20895;51.034;3.742;2023-03-02T00:11:03;11.10;;;7.95;;
34019;SDS011;20895;51.034;3.742;2023-03-02T00:13:29;12.63;;;8.02;;
34019;SDS011;20895;51.034;3.742;2023-03-02T00:15:54;12.88;;;8.30;;
34019;SDS011;20895;51.034;3.742;2023-03-02T00:18:19;12.95;;;7.65;;
34019;SDS011;20895;51.034;3.742;2023-03-02T00:20:45;11.70;;;7.97;;
34019;SDS011;20895;51.034;3.742;2023-03-02T00:23:10;10.77;;;7.57;;
34019;SDS011;20895;51.034;3.742;2023-03-02T00:25:35;11.00;;;7.72;;
34019;SDS011;20895;51.034;3.742;2023-03-02T00:28:00;10.93;;;7.68;;
34019;SDS011;20895;51.034;3.742;2023-03-02T00:30:26;11.93;;;7.55;;
34019;SDS011;20895;51.034;3.742;2023-03-02T00:32:51;10.32;;;7.28;;
34019;SDS011;20895;51.034;3.742;2023-03-02T00:35:16;9.73;;;6.45;;
34019;SDS011;20895;51.034;3.742;2023-03-02T00:37:42;9.70;;;7.03;;
34019;SDS011;20895;51.034;3.742;2023-03-02T00:40:07;14.45;;;7.68;;
34019;SDS011;20895;51.034;3.742;2023-03-02T00:42:34;10.35;;;6.70;;
34019;SDS011;20895;51.034;3.742;2023-03-02T00:44:59;10.98;;;7.50;;
34019;SDS011;20895;51.034;3.742;2023-03-02T00:47:26;11.30;;;7.38;;
34019;SDS011;20895;51.034;3.742;2023-03-02T00:49:51;9.43;;;6.53;;
34019;SDS011;20895;51.034;3.742;2023-03-02T00:52:16;10.07;;;7.75;;
34019;SDS011;20895;51.034;3.742;2023-03-02T00:54:42;10.82;;;7.25;;
34019;SDS011;20895;51.034;3.742;2023-03-02T00:57:07;11.45;;;7.38;;
34019;SDS011;20895;51.034;3.742;2023-03-02T00:59:33;10.93;;;6.93;;
34019;SDS011;20895;51.034;3.742;2023-03-02T01:01:58;14.18;;;7.25;;
34019;SDS011;20895;51.034;3.742;2023-03-02T01:04:28;13.50;;;7.15;;
34019;SDS011;20895;51.034;3.742;2023-03-02T01:06:59;11.98;;;7.47;;
34019;SDS011;20895;51.034;3.742;2023-03-02T01:09:26;11.52;;;7.63;;
34019;SDS011;20895;51.034;3.742;2023-03-02T01:11:51;13.00;;;7.65;;
34019;SDS011;20895;51.034;3.742;2023-03-02T01:14:17;9.93;;;7.35;;
34019;SDS011;20895;51.034;3.742;2023-03-02T01:16:43;11.88;;;7.65;;
34019;SDS011;20895;51.034;3.742;2023-03-02T01:19:08;11.30;;;7.38;;
34019;SDS011;20895;51.034;3.742;2023-03-02T01:21:33;10.60;;;7.88;;
34019;SDS011;20895;51.034;3.742;2023-03-02T01:23:59;11.18;;;7.43;;
34019;SDS011;20895;51.034;3.742;2023-03-02T01:26:24;11.73;;;8.18;;
34019;SDS011;20895;51.034;3.742;2023-03-02T01:28:50;12.68;;;7.22;;
34019;SDS011;20895;51.034;3.742;2023-03-02T01:31:20;11.48;;;6.97;;
34019;SDS011;20895;51.034;3.742;2023-03-02T01:33:45;10.50;;;6.85;;
34019;SDS011;20895;51.034;3.742;2023-03-02T01:36:10;11.10;;;7.25;;
34019;SDS011;20895;51.034;3.742;2023-03-02T01:38:35;13.75;;;7.13;;
34019;SDS011;20895;51.034;3.742;2023-03-02T01:41:01;14.82;;;7.43;;
34019;SDS011;20895;51.034;3.742;2023-03-02T01:43:26;11.10;;;6.78;;
34019;SDS011;20895;51.034;3.742;2023-03-02T01:45:54;10.32;;;7.20;;
34019;SDS011;20895;51.034;3.742;2023-03-02T01:48:43;10.27;;;7.57;;
34019;SDS011;20895;51.034;3.742;2023-03-02T01:51:06;11.85;;;7.35;;
34019;SDS011;20895;51.034;3.742;2023-03-02T01:53:32;14.80;;;7.82;;
34019;SDS011;20895;51.034;3.742;2023-03-02T01:55:58;12.68;;;7.35;;
34019;SDS011;20895;51.034;3.742;2023-03-02T01:58:24;11.25;;;7.40;;
34019;SDS011;20895;51.034;3.742;2023-03-02T02:00:50;11.45;;;7.10;;
34019;SDS011;20895;51.034;3.742;2023-03-02T02:03:20;14.50;;;7.85;;
34019;SDS011;20895;51.034;3.742;2023-03-02T02:05:47;11.00;;;7.20;;
34019;SDS011;20895;51.034;3.742;2023-03-02T02:08:17;18.23;;;8.18;;
34019;SDS011;20895;51.034;3.742;2023-03-02T02:10:43;9.68;;;7.25;;
34019;SDS011;20895;51.034;3.742;2023-03-02T02:13:08;10.85;;;7.72;;
34019;SDS011;20895;51.034;3.742;2023-03-02T02:15:34;11.43;;;6.75;;
34019;SDS011;20895;51.034;3.742;2023-03-02T02:18:00;13.32;;;7.93;;
34019;SDS011;20895;51.034;3.742;2023-03-02T02:25:28;10.57;;;7.15;;
34019;SDS011;20895;51.034;3.742;2023-03-02T02:27:58;10.77;;;7.57;;
34019;SDS011;20895;51.034;3.742;2023-03-02T02:30:23;11.13;;;8.00;;
34019;SDS011;20895;51.034;3.742;2023-03-02T02:32:49;11.15;;;7.88;;
34019;SDS011;20895;51.034;3.742;2023-03-02T02:35:17;13.02;;;8.18;;
34019;SDS011;20895;51.034;3.742;2023-03-02T02:37:45;10.73;;;7.72;;
34019;SDS011;20895;51.034;3.742;2023-03-02T02:42:56;12.05;;;6.93;;
34019;SDS011;20895;51.034;3.742;2023-03-02T02:45:23;10.60;;;6.85;;
34019;SDS011;20895;51.034;3.742;2023-03-02T02:47:49;11.25;;;7.65;;
34019;SDS011;20895;51.034;3.742;2023-03-02T02:50:16;21.00;;;8.27;;
34019;SDS011;20895;51.034;3.742;2023-03-02T02:52:42;11.77;;;7.53;;
34019;SDS011;20895;51.034;3.742;2023-03-02T02:55:08;10.80;;;8.00;;
34019;SDS011;20895;51.034;3.742;2023-03-02T02:57:37;10.32;;;7.00;;
34019;SDS011;20895;51.034;3.742;2023-03-02T03:00:03;11.38;;;7.53;;
34019;SDS011;20895;51.034;3.742;2023-03-02T03:02:31;12.30;;;8.75;;
34019;SDS011;20895;51.034;3.742;2023-03-02T03:04:58;11.98;;;7.22;;
34019;SDS011;20895;51.034;3.742;2023-03-02T03:07:29;10.60;;;7.20;;
34019;SDS011;20895;51.034;3.742;2023-03-02T03:12:38;12.55;;;7.72;;
34019;SDS011;20895;51.034;3.742;2023-03-02T03:15:04;9.88;;;7.13;;
34019;SDS011;20895;51.034;3.742;2023-03-02T03:17:30;10.48;;;7.03;;
34019;SDS011;20895;51.034;3.742;2023-03-02T03:19:55;10.70;;;7.95;;
34019;SDS011;20895;51.034;3.742;2023-03-02T03:22:30;10.85;;;6.90;;
34019;SDS011;20895;51.034;3.742;2023-03-02T03:24:55;10.65;;;7.03;;
34019;SDS011;20895;51.034;3.742;2023-03-02T03:27:22;12.45;;;7.78;;
34019;SDS011;20895;51.034;3.742;2023-03-02T03:29:48;12.07;;;7.68;;
34019;SDS011;20895;51.034;3.742;2023-03-02T03:32:13;9.18;;;7.22;;
34019;SDS011;20895;51.034;3.742;2023-03-02T03:34:39;14.90;;;7.45;;
34019;SDS011;20895;51.034;3.742;2023-03-02T03:37:05;15.30;;;7.13;;
34019;SDS011;20895;51.034;3.742;2023-03-02T03:39:31;9.68;;;6.65;;
34019;SDS011;20895;51.034;3.742;2023-03-02T03:41:56;12.50;;;7.35;;
34019;SDS011;20895;51.034;3.742;2023-03-02T03:44:21;10.57;;;7.35;;
34019;SDS011;20895;51.034;3.742;2023-03-02T03:46:46;10.38;;;7.32;;
34019;SDS011;20895;51.034;3.742;2023-03-02T03:49:12;12.43;;;7.60;;
34019;SDS011;20895;51.034;3.742;2023-03-02T03:51:37;11.05;;;7.55;;
34019;SDS011;20895;51.034;3.742;2023-03-02T03:54:03;14.27;;;8.90;;
34019;SDS011;20895;51.034;3.742;2023-03-02T03:56:29;11.45;;;8.13;;
34019;SDS011;20895;51.034;3.742;2023-03-02T03:58:55;9.30;;;7.13;;
34019;SDS011;20895;51.034;3.742;2023-03-02T04:01:37;10.00;;;7.45;;
34019;SDS011;20895;51.034;3.742;2023-03-02T04:04:03;16.17;;;9.52;;
34019;SDS011;20895;51.034;3.742;2023-03-02T04:06:28;10.60;;;7.53;;
34019;SDS011;20895;51.034;3.742;2023-03-02T04:08:54;12.00;;;7.65;;
34019;SDS011;20895;51.034;3.742;2023-03-02T04:11:19;12.48;;;7.60;;
34019;SDS011;20895;51.034;3.742;2023-03-02T04:13:44;11.90;;;7.22;;
34019;SDS011;20895;51.034;3.742;2023-03-02T04:16:09;11.07;;;7.35;;
34019;SDS011;20895;51.034;3.742;2023-03-02T04:18:35;11.77;;;7.53;;
34019;SDS011;20895;51.034;3.742;2023-03-02T04:21:00;10.88;;;7.50;;
34019;SDS011;20895;51.034;3.742;2023-03-02T04:23:25;14.40;;;8.35;;
34019;SDS011;20895;51.034;3.742;2023-03-02T04:25:50;11.85;;;7.38;;
34019;SDS011;20895;51.034;3.742;2023-03-02T04:28:16;11.48;;;8.10;;
34019;SDS011;20895;51.034;3.742;2023-03-02T04:30:41;12.25;;;7.82;;
34019;SDS011;20895;51.034;3.742;2023-03-02T04:33:06;14.63;;;8.73;;
34019;SDS011;20895;51.034;3.742;2023-03-02T04:35:31;11.93;;;7.88;;
34019;SDS011;20895;51.034;3.742;2023-03-02T04:37:57;23.77;;;9.00;;
34019;SDS011;20895;51.034;3.742;2023-03-02T04:40:23;13.63;;;8.55;;
34019;SDS011;20895;51.034;3.742;2023-03-02T04:42:48;18.65;;;8.52;;
34019;SDS011;20895;51.034;3.742;2023-03-02T04:45:13;12.63;;;8.93;;
34019;SDS011;20895;51.034;3.742;2023-03-02T04:47:39;12.70;;;8.30;;
34019;SDS011;20895;51.034;3.742;2023-03-02T04:50:04;13.20;;;8.77;;
34019;SDS011;20895;51.034;3.742;2023-03-02T04:52:30;15.88;;;10.85;;
34019;SDS011;20895;51.034;3.742;2023-03-02T04:54:55;14.05;;;10.13;;
34019;SDS011;20895;51.034;3.742;2023-03-02T04:57:20;14.23;;;9.30;;
34019;SDS011;20895;51.034;3.742;2023-03-02T04:59:45;16.38;;;10.23;;
34019;SDS011;20895;51.034;3.742;2023-03-02T05:02:11;16.23;;;10.10;;
34019;SDS011;20895;51.034;3.742;2023-03-02T05:04:36;18.27;;;10.35;;
34019;SDS011;20895;51.034;3.742;2023-03-02T05:07:01;16.65;;;10.38;;
34019;SDS011;20895;51.034;3.742;2023-03-02T05:09:27;16.40;;;11.60;;
34019;SDS011;20895;51.034;3.742;2023-03-02T05:11:55;21.02;;;10.98;;
34019;SDS011;20895;51.034;3.742;2023-03-02T05:14:21;17.35;;;11.90;;
34019;SDS011;20895;51.034;3.742;2023-03-02T05:16:46;18.90;;;12.65;;
34019;SDS011;20895;51.034;3.742;2023-03-02T05:19:11;16.13;;;11.15;;
34019;SDS011;20895;51.034;3.742;2023-03-02T05:21:37;20.60;;;13.18;;
34019;SDS011;20895;51.034;3.742;2023-03-02T05:24:02;20.75;;;12.80;;
34019;SDS011;20895;51.034;3.742;2023-03-02T05:26:28;21.33;;;14.00;;
34019;SDS011;20895;51.034;3.742;2023-03-02T05:28:53;23.00;;;13.77;;
34019;SDS011;20895;51.034;3.742;2023-03-02T05:31:20;19.73;;;13.00;;
34019;SDS011;20895;51.034;3.742;2023-03-02T05:33:45;23.10;;;14.00;;
34019;SDS011;20895;51.034;3.742;2023-03-02T05:36:11;22.75;;;15.25;;
34019;SDS011;20895;51.034;3.742;2023-03-02T05:38:36;23.10;;;14.93;;
34019;SDS011;20895;51.034;3.742;2023-03-02T05:41:02;24.05;;;15.07;;
34019;SDS011;20895;51.034;3.742;2023-03-02T05:43:28;25.88;;;15.52;;
34019;SDS011;20895;51.034;3.742;2023-03-02T05:45:53;26.90;;;17.88;;
34019;SDS011;20895;51.034;3.742;2023-03-02T05:48:24;28.23;;;17.42;;
34019;SDS011;20895;51.034;3.742;2023-03-02T05:50:49;26.90;;;19.00;;
34019;SDS011;20895;51.034;3.742;2023-03-02T05:53:14;33.85;;;18.23;;
34019;SDS011;20895;51.034;3.742;2023-03-02T05:55:40;29.75;;;17.98;;
34019;SDS011;20895;51.034;3.742;2023-03-02T05:58:05;31.17;;;18.80;;
34019;SDS011;20895;51.034;3.742;2023-03-02T06:00:31;33.38;;;20.42;;
34019;SDS011;20895;51.034;3.742;2023-03-02T06:02:56;31.13;;;19.30;;
34019;SDS011;20895;51.034;3.742;2023-03-02T06:05:22;29.33;;;18.25;;
34019;SDS011;20895;51.034;3.742;2023-03-02T06:07:48;28.08;;;19.20;;
34019;SDS011;20895;51.034;3.742;2023-03-02T06:10:13;29.60;;;20.90;;
34019;SDS011;20895;51.034;3.742;2023-03-02T06:12:39;31.00;;;19.80;;
34019;SDS011;20895;51.034;3.742;2023-03-02T06:15:04;29.27;;;18.95;;
34019;SDS011;20895;51.034;3.742;2023-03-02T06:17:30;37.33;;;22.20;;
34019;SDS011;20895;51.034;3.742;2023-03-02T06:19:56;31.80;;;22.15;;
34019;SDS011;20895;51.034;3.742;2023-03-02T06:22:21;38.10;;;21.75;;
34019;SDS011;20895;51.034;3.742;2023-03-02T06:24:47;35.85;;;22.55;;
34019;SDS011;20895;51.034;3.742;2023-03-02T06:27:12;33.17;;;21.98;;
34019;SDS011;20895;51.034;3.742;2023-03-02T06:29:38;36.10;;;22.30;;
34019;SDS011;20895;51.034;3.742;2023-03-02T06:32:03;32.83;;;21.70;;
34019;SDS011;20895;51.034;3.742;2023-03-02T06:34:28;35.28;;;23.55;;
34019;SDS011;20895;51.034;3.742;2023-03-02T06:36:54;32.92;;;21.52;;
34019;SDS011;20895;51.034;3.742;2023-03-02T06:39:19;36.60;;;25.80;;
34019;SDS011;20895;51.034;3.742;2023-03-02T06:41:45;36.65;;;23.95;;
34019;SDS011;20895;51.034;3.742;2023-03-02T06:44:11;39.53;;;24.40;;
34019;SDS011;20895;51.034;3.742;2023-03-02T06:46:37;38.55;;;25.05;;
34019;SDS011;20895;51.034;3.742;2023-03-02T06:49:02;39.38;;;24.05;;
34019;SDS011;20895;51.034;3.742;2023-03-02T06:51:28;42.95;;;24.50;;
34019;SDS011;20895;51.034;3.742;2023-03-02T06:53:53;37.00;;;25.17;;
34019;SDS011;20895;51.034;3.742;2023-03-02T06:56:18;39.65;;;24.20;;
34019;SDS011;20895;51.034;3.742;2023-03-02T06:58:44;37.53;;;24.02;;
34019;SDS011;20895;51.034;3.742;2023-03-02T07:01:09;39.53;;;25.45;;
34019;SDS011;20895;51.034;3.742;2023-03-02T07:03:34;43.03;;;27.38;;
34019;SDS011;20895;51.034;3.742;2023-03-02T07:06:00;41.03;;;24.95;;
34019;SDS011;20895;51.034;3.742;2023-03-02T07:08:25;39.33;;;25.27;;
34019;SDS011;20895;51.034;3.742;2023-03-02T07:10:50;41.58;;;26.40;;
34019;SDS011;20895;51.034;3.742;2023-03-02T07:13:16;41.85;;;27.33;;
34019;SDS011;20895;51.034;3.742;2023-03-02T07:15:41;38.50;;;26.35;;
34019;SDS011;20895;51.034;3.742;2023-03-02T07:18:06;40.15;;;24.02;;
34019;SDS011;20895;51.034;3.742;2023-03-02T07:20:31;41.60;;;25.42;;
34019;SDS011;20895;51.034;3.742;2023-03-02T07:22:58;38.53;;;25.75;;
34019;SDS011;20895;51.034;3.742;2023-03-02T07:25:23;40.60;;;24.58;;
34019;SDS011;20895;51.034;3.742;2023-03-02T07:27:48;42.95;;;27.38;;
34019;SDS011;20895;51.034;3.742;2023-03-02T07:30:14;39.33;;;26.50;;
34019;SDS011;20895;51.034;3.742;2023-03-02T07:32:39;39.17;;;26.05;;
34019;SDS011;20895;51.034;3.742;2023-03-02T07:35:05;40.08;;;25.17;;
34019;SDS011;20895;51.034;3.742;2023-03-02T07:37:30;41.10;;;25.52;;
34019;SDS011;20895;51.034;3.742;2023-03-02T07:39:55;43.97;;;27.00;;
34019;SDS011;20895;51.034;3.742;2023-03-02T07:42:21;41.05;;;26.50;;
34019;SDS011;20895;51.034;3.742;2023-03-02T07:44:46;52.13;;;28.08;;
34019;SDS011;20895;51.034;3.742;2023-03-02T07:47:12;57.60;;;26.73;;
34019;SDS011;20895;51.034;3.742;2023-03-02T07:49:37;52.13;;;25.20;;
34019;SDS011;20895;51.034;3.742;2023-03-02T07:52:02;55.60;;;26.85;;
34019;SDS011;20895;51.034;3.742;2023-03-02T07:54:28;38.55;;;24.85;;
34019;SDS011;20895;51.034;3.742;2023-03-02T07:56:54;52.47;;;27.83;;
34019;SDS011;20895;51.034;3.742;2023-03-02T07:59:20;48.17;;;26.02;;
34019;SDS011;20895;51.034;3.742;2023-03-02T08:01:45;40.83;;;24.85;;
34019;SDS011;20895;51.034;3.742;2023-03-02T08:04:10;43.22;;;24.88;;
34019;SDS011;20895;51.034;3.742;2023-03-02T08:06:35;36.97;;;25.50;;
34019;SDS011;20895;51.034;3.742;2023-03-02T08:09:02;38.53;;;25.13;;
34019;SDS011;20895;51.034;3.742;2023-03-02T08:11:27;45.00;;;26.55;;
34019;SDS011;20895;51.034;3.742;2023-03-02T08:13:53;41.47;;;24.80;;
34019;SDS011;20895;51.034;3.742;2023-03-02T08:16:18;38.88;;;23.38;;
34019;SDS011;20895;51.034;3.742;2023-03-02T08:18:43;34.90;;;23.50;;
34019;SDS011;20895;51.034;3.742;2023-03-02T08:21:10;37.92;;;24.02;;
34019;SDS011;20895;51.034;3.742;2023-03-02T08:23:35;38.15;;;25.25;;
34019;SDS011;20895;51.034;3.742;2023-03-02T08:26:00;36.38;;;24.55;;
34019;SDS011;20895;51.034;3.742;2023-03-02T08:28:26;38.03;;;24.00;;
34019;SDS011;20895;51.034;3.742;2023-03-02T08:30:57;37.28;;;22.33;;
34019;SDS011;20895;51.034;3.742;2023-03-02T08:33:23;33.60;;;21.35;;
34019;SDS011;20895;51.034;3.742;2023-03-02T08:35:59;37.45;;;23.30;;
34019;SDS011;20895;51.034;3.742;2023-03-02T08:38:25;37.40;;;24.10;;
34019;SDS011;20895;51.034;3.742;2023-03-02T08:40:51;35.95;;;24.30;;
34019;SDS011;20895;51.034;3.742;2023-03-02T08:43:17;34.92;;;22.75;;
34019;SDS011;20895;51.034;3.742;2023-03-02T08:45:43;39.67;;;23.30;;
34019;SDS011;20895;51.034;3.742;2023-03-02T08:48:08;36.17;;;23.25;;
34019;SDS011;20895;51.034;3.742;2023-03-02T08:50:33;35.38;;;21.10;;
34019;SDS011;20895;51.034;3.742;2023-03-02T08:52:59;36.05;;;21.85;;
34019;SDS011;20895;51.034;3.742;2023-03-02T08:55:24;35.15;;;23.67;;
34019;SDS011;20895;51.034;3.742;2023-03-02T08:57:49;36.35;;;23.17;;
34019;SDS011;20895;51.034;3.742;2023-03-02T09:00:15;37.40;;;21.98;;
34019;SDS011;20895;51.034;3.742;2023-03-02T09:02:40;35.60;;;21.63;;
34019;SDS011;20895;51.034;3.742;2023-03-02T09:05:05;36.20;;;22.13;;
34019;SDS011;20895;51.034;3.742;2023-03-02T09:07:31;36.42;;;21.77;;
34019;SDS011;20895;51.034;3.742;2023-03-02T09:09:56;37.13;;;22.85;;
34019;SDS011;20895;51.034;3.742;2023-03-02T09:12:21;34.80;;;22.35;;
34019;SDS011;20895;51.034;3.742;2023-03-02T09:14:47;37.30;;;24.10;;
34019;SDS011;20895;51.034;3.742;2023-03-02T09:17:12;36.55;;;21.92;;
34019;SDS011;20895;51.034;3.742;2023-03-02T09:19:39;34.17;;;21.98;;
34019;SDS011;20895;51.034;3.742;2023-03-02T09:22:06;32.83;;;21.80;;
34019;SDS011;20895;51.034;3.742;2023-03-02T09:24:32;31.52;;;21.27;;
34019;SDS011;20895;51.034;3.742;2023-03-02T09:26:57;35.13;;;21.38;;
34019;SDS011;20895;51.034;3.742;2023-03-02T09:29:22;33.53;;;20.75;;
34019;SDS011;20895;51.034;3.742;2023-03-02T09:31:47;35.30;;;21.52;;
34019;SDS011;20895;51.034;3.742;2023-03-02T09:34:13;33.45;;;20.77;;
34019;SDS011;20895;51.034;3.742;2023-03-02T09:36:38;33.22;;;23.58;;
34019;SDS011;20895;51.034;3.742;2023-03-02T09:39:03;40.38;;;23.90;;
34019;SDS011;20895;51.034;3.742;2023-03-02T09:46:52;48.95;;;25.77;;
34019;SDS011;20895;51.034;3.742;2023-03-02T09:52:07;32.80;;;22.77;;
34019;SDS011;20895;51.034;3.742;2023-03-02T09:54:35;30.90;;;20.60;;
34019;SDS011;20895;51.034;3.742;2023-03-02T09:57:01;38.65;;;20.60;;
34019;SDS011;20895;51.034;3.742;2023-03-02T09:59:28;32.10;;;20.02;;
34019;SDS011;20895;51.034;3.742;2023-03-02T10:01:56;31.80;;;21.55;;
34019;SDS011;20895;51.034;3.742;2023-03-02T10:04:29;53.38;;;23.23;;
34019;SDS011;20895;51.034;3.742;2023-03-02T10:06:56;34.15;;;21.60;;
34019;SDS011;20895;51.034;3.742;2023-03-02T10:09:22;30.92;;;20.92;;
34019;SDS011;20895;51.034;3.742;2023-03-02T10:14:23;33.08;;;19.70;;
34019;SDS011;20895;51.034;3.742;2023-03-02T10:27:23;37.20;;;21.02;;
34019;SDS011;20895;51.034;3.742;2023-03-02T10:32:17;27.70;;;19.00;;
34019;SDS011;20895;51.034;3.742;2023-03-02T10:34:43;32.10;;;19.48;;
34019;SDS011;20895;51.034;3.742;2023-03-02T10:37:22;28.92;;;18.80;;
34019;SDS011;20895;51.034;3.742;2023-03-02T10:39:49;32.50;;;20.50;;
34019;SDS011;20895;51.034;3.742;2023-03-02T10:42:26;29.65;;;18.77;;
34019;SDS011;20895;51.034;3.742;2023-03-02T10:44:54;28.50;;;18.95;;
34019;SDS011;20895;51.034;3.742;2023-03-02T10:47:20;32.88;;;21.33;;
34019;SDS011;20895;51.034;3.742;2023-03-02T10:49:46;61.85;;;22.50;;
34019;SDS011;20895;51.034;3.742;2023-03-02T10:54:38;30.92;;;18.73;;
34019;SDS011;20895;51.034;3.742;2023-03-02T10:57:04;28.02;;;18.15;;
34019;SDS011;20895;51.034;3.742;2023-03-02T11:01:58;23.23;;;16.40;;
34019;SDS011;20895;51.034;3.742;2023-03-02T11:04:25;36.75;;;18.95;;
34019;SDS011;20895;51.034;3.742;2023-03-02T11:06:51;27.08;;;17.38;;
34019;SDS011;20895;51.034;3.742;2023-03-02T11:09:16;38.08;;;18.02;;
34019;SDS011;20895;51.034;3.742;2023-03-02T11:11:47;28.75;;;17.33;;
34019;SDS011;20895;51.034;3.742;2023-03-02T11:14:13;26.38;;;18.10;;
34019;SDS011;20895;51.034;3.742;2023-03-02T11:16:39;25.40;;;16.58;;
34019;SDS011;20895;51.034;3.742;2023-03-02T11:26:24;23.50;;;16.55;;
34019;SDS011;20895;51.034;3.742;2023-03-02T11:31:34;24.88;;;15.68;;
34019;SDS011;20895;51.034;3.742;2023-03-02T11:42:14;22.98;;;16.83;;
34019;SDS011;20895;51.034;3.742;2023-03-02T11:44:42;25.35;;;16.38;;
34019;SDS011;20895;51.034;3.742;2023-03-02T11:47:08;27.10;;;17.23;;
34019;SDS011;20895;51.034;3.742;2023-03-02T11:49:58;23.60;;;15.57;;
34019;SDS011;20895;51.034;3.742;2023-03-02T11:52:25;23.60;;;15.32;;
34019;SDS011;20895;51.034;3.742;2023-03-02T11:57:36;27.55;;;16.92;;
34019;SDS011;20895;51.034;3.742;2023-03-02T12:00:03;27.52;;;16.08;;
34019;SDS011;20895;51.034;3.742;2023-03-02T12:02:28;24.60;;;15.77;;
34019;SDS011;20895;51.034;3.742;2023-03-02T12:05:00;22.30;;;14.90;;
34019;SDS011;20895;51.034;3.742;2023-03-02T12:07:26;26.20;;;15.45;;
34019;SDS011;20895;51.034;3.742;2023-03-02T12:12:41;22.15;;;15.95;;
34019;SDS011;20895;51.034;3.742;2023-03-02T12:15:25;34.15;;;17.17;;
34019;SDS011;20895;51.034;3.742;2023-03-02T12:17:50;20.98;;;15.48;;
34019;SDS011;20895;51.034;3.742;2023-03-02T12:22:44;26.05;;;16.05;;
34019;SDS011;20895;51.034;3.742;2023-03-02T12:27:45;25.65;;;17.10;;
34019;SDS011;20895;51.034;3.742;2023-03-02T12:32:39;21.95;;;15.23;;
34019;SDS011;20895;51.034;3.742;2023-03-02T12:35:10;18.92;;;13.82;;
34019;SDS011;20895;51.034;3.742;2023-03-02T12:40:22;20.17;;;16.02;;
34019;SDS011;20895;51.034;3.742;2023-03-02T12:42:55;22.70;;;16.58;;
34019;SDS011;20895;51.034;3.742;2023-03-02T12:50:35;27.58;;;14.68;;
34019;SDS011;20895;51.034;3.742;2023-03-02T12:53:02;16.55;;;13.65;;
34019;SDS011;20895;51.034;3.742;2023-03-02T12:55:28;20.30;;;14.13;;
34019;SDS011;20895;51.034;3.742;2023-03-02T12:57:55;25.27;;;15.25;;
34019;SDS011;20895;51.034;3.742;2023-03-02T13:00:25;16.20;;;12.85;;
34019;SDS011;20895;51.034;3.742;2023-03-02T13:02:52;21.60;;;13.55;;
34019;SDS011;20895;51.034;3.742;2023-03-02T13:05:20;19.52;;;13.13;;
34019;SDS011;20895;51.034;3.742;2023-03-02T13:07:59;17.67;;;13.25;;
34019;SDS011;20895;51.034;3.742;2023-03-02T13:10:26;17.00;;;13.45;;
34019;SDS011;20895;51.034;3.742;2023-03-02T13:12:52;18.52;;;13.75;;
34019;SDS011;20895;51.034;3.742;2023-03-02T13:15:17;21.35;;;14.77;;
34019;SDS011;20895;51.034;3.742;2023-03-02T13:17:43;20.20;;;14.43;;
34019;SDS011;20895;51.034;3.742;2023-03-02T13:20:09;21.73;;;14.82;;
34019;SDS011;20895;51.034;3.742;2023-03-02T13:22:36;21.30;;;14.93;;
34019;SDS011;20895;51.034;3.742;2023-03-02T13:25:03;19.50;;;14.80;;
34019;SDS011;20895;51.034;3.742;2023-03-02T13:27:30;22.73;;;14.57;;
34019;SDS011;20895;51.034;3.742;2023-03-02T13:29:55;18.23;;;14.38;;
34019;SDS011;20895;51.034;3.742;2023-03-02T13:32:38;18.98;;;14.93;;
34019;SDS011;20895;51.034;3.742;2023-03-02T13:35:13;20.60;;;14.02;;
34019;SDS011;20895;51.034;3.742;2023-03-02T13:37:39;18.48;;;13.30;;
34019;SDS011;20895;51.034;3.742;2023-03-02T13:42:51;21.05;;;14.80;;
34019;SDS011;20895;51.034;3.742;2023-03-02T13:45:28;20.50;;;15.55;;
34019;SDS011;20895;51.034;3.742;2023-03-02T13:47:54;20.58;;;15.45;;
34019;SDS011;20895;51.034;3.742;2023-03-02T13:50:21;17.80;;;13.63;;
34019;SDS011;20895;51.034;3.742;2023-03-02T13:52:47;23.63;;;15.82;;
34019;SDS011;20895;51.034;3.742;2023-03-02T13:55:14;22.30;;;15.25;;
34019;SDS011;20895;51.034;3.742;2023-03-02T13:57:39;19.88;;;14.52;;
34019;SDS011;20895;51.034;3.742;2023-03-02T14:00:06;22.55;;;15.77;;
34019;SDS011;20895;51.034;3.742;2023-03-02T14:02:35;21.17;;;15.05;;
34019;SDS011;20895;51.034;3.742;2023-03-02T14:05:00;20.30;;;14.13;;
34019;SDS011;20895;51.034;3.742;2023-03-02T14:07:25;20.10;;;15.60;;
34019;SDS011;20895;51.034;3.742;2023-03-02T14:09:50;22.90;;;16.25;;
34019;SDS011;20895;51.034;3.742;2023-03-02T14:12:26;25.63;;;15.68;;
34019;SDS011;20895;51.034;3.742;2023-03-02T14:14:53;31.70;;;22.98;;
34019;SDS011;20895;51.034;3.742;2023-03-02T14:17:21;19.88;;;15.55;;
34019;SDS011;20895;51.034;3.742;2023-03-02T14:19:47;22.23;;;15.35;;
34019;SDS011;20895;51.034;3.742;2023-03-02T14:22:16;23.83;;;15.70;;
34019;SDS011;20895;51.034;3.742;2023-03-02T14:24:41;22.25;;;15.88;;
34019;SDS011;20895;51.034;3.742;2023-03-02T14:27:07;23.85;;;15.50;;
34019;SDS011;20895;51.034;3.742;2023-03-02T14:29:32;20.08;;;14.95;;
34019;SDS011;20895;51.034;3.742;2023-03-02T14:32:03;19.95;;;14.57;;
34019;SDS011;20895;51.034;3.742;2023-03-02T14:34:30;23.02;;;14.88;;
34019;SDS011;20895;51.034;3.742;2023-03-02T14:36:57;18.83;;;13.65;;
34019;SDS011;20895;51.034;3.742;2023-03-02T14:42:00;22.52;;;14.43;;
34019;SDS011;20895;51.034;3.742;2023-03-02T14:44:26;22.20;;;14.68;;
34019;SDS011;20895;51.034;3.742;2023-03-02T14:46:51;19.60;;;13.88;;
34019;SDS011;20895;51.034;3.742;2023-03-02T14:49:17;24.25;;;15.38;;
34019;SDS011;20895;51.034;3.742;2023-03-02T14:51:42;21.00;;;15.10;;
34019;SDS011;20895;51.034;3.742;2023-03-02T14:54:11;23.55;;;14.07;;
34019;SDS011;20895;51.034;3.742;2023-03-02T14:56:38;21.60;;;14.73;;
34019;SDS011;20895;51.034;3.742;2023-03-02T14:59:03;20.77;;;13.25;;
34019;SDS011;20895;51.034;3.742;2023-03-02T15:01:29;18.33;;;13.00;;
34019;SDS011;20895;51.034;3.742;2023-03-02T15:03:55;24.45;;;13.95;;
34019;SDS011;20895;51.034;3.742;2023-03-02T15:06:27;22.58;;;13.13;;
34019;SDS011;20895;51.034;3.742;2023-03-02T15:08:54;28.90;;;18.10;;
34019;SDS011;20895;51.034;3.742;2023-03-02T15:11:19;24.33;;;13.13;;
34019;SDS011;20895;51.034;3.742;2023-03-02T15:13:45;86.53;;;21.15;;
34019;SDS011;20895;51.034;3.742;2023-03-02T15:16:10;28.52;;;14.40;;
34019;SDS011;20895;51.034;3.742;2023-03-02T15:18:38;20.33;;;12.90;;
34019;SDS011;20895;51.034;3.742;2023-03-02T15:21:04;20.30;;;13.13;;
34019;SDS011;20895;51.034;3.742;2023-03-02T15:23:29;18.05;;;12.05;;
34019;SDS011;20895;51.034;3.742;2023-03-02T15:25:58;25.15;;;12.05;;
34019;SDS011;20895;51.034;3.742;2023-03-02T15:28:24;22.08;;;12.23;;
34019;SDS011;20895;51.034;3.742;2023-03-02T15:30:49;27.98;;;12.75;;
34019;SDS011;20895;51.034;3.742;2023-03-02T15:33:14;20.98;;;12.10;;
34019;SDS011;20895;51.034;3.742;2023-03-02T15:35:39;18.98;;;12.00;;
34019;SDS011;20895;51.034;3.742;2023-03-02T15:38:05;19.30;;;12.43;;
34019;SDS011;20895;51.034;3.742;2023-03-02T15:40:30;23.90;;;13.50;;
34019;SDS011;20895;51.034;3.742;2023-03-02T15:42:55;19.95;;;12.80;;
34019;SDS011;20895;51.034;3.742;2023-03-02T15:45:20;19.48;;;12.45;;